Time;durP1;ratioP1;P1;durP2;ratioP2;P2;SDS_P1;SDS_P2;PMS_P1;PMS_P2;Temp;Humidity;BMP_temperature;BMP_pressure;BME280_temperature;BME280_humidity;BME280_pressure;Samples;Min_cycle;Max_cycle;Signal;HPM_P1;HPM_P2
2023/01/04 00:02:25;;;;;;;27.10;19.90;;;3.40;99.90;;;2.67;93.27;99144.16;5094458;28;20864;-75
2023/01/04 00:04:52;;;;;;;32.00;21.57;;;3.40;99.90;;;2.77;93.98;99169.03;5093151;28;20519;-77
2023/01/04 00:07:19;;;;;;;32.80;21.50;;;3.30;99.90;;;2.64;94.52;99168.44;5078018;28;20736;-76
2023/01/04 00:09:47;;;;;;;24.83;19.80;;;3.30;99.90;;;2.44;94.08;99141.69;5078034;28;20439;-75
2023/01/04 00:12:14;;;;;;;29.43;21.50;;;3.30;99.90;;;2.70;94.30;99175.91;5103823;28;20496;-76
2023/01/04 00:14:44;;;;;;;31.50;22.33;;;3.30;99.90;;;2.68;94.50;99183.22;5105075;28;20443;-76
2023/01/04 00:17:11;;;;;;;33.37;23.27;;;3.20;99.90;;;2.67;94.76;99184.19;5064979;28;21334;-75
2023/01/04 00:19:40;;;;;;;30.90;22.63;;;3.20;99.90;;;2.68;95.25;99175.22;5087498;28;20966;-78
2023/01/04 00:22:07;;;;;;;31.60;21.70;;;3.20;99.90;;;2.66;94.16;99174.50;5086728;28;20451;-75
2023/01/04 00:24:34;;;;;;;31.53;22.47;;;3.20;99.90;;;2.68;94.93;99177.88;5087962;28;20536;-76
2023/01/04 00:27:02;;;;;;;36.97;24.50;;;3.20;99.90;;;2.67;94.05;99202.88;5082334;28;20456;-76
2023/01/04 00:29:29;;;;;;;30.80;22.70;;;3.20;99.90;;;2.64;94.40;99179.09;5092297;28;20452;-76
2023/01/04 00:31:56;;;;;;;31.73;24.17;;;3.10;99.90;;;2.67;94.08;99178.84;5089703;28;20465;-75
2023/01/04 00:34:23;;;;;;;29.17;20.87;;;3.10;99.90;;;2.66;93.50;99164.66;5067724;28;21199;-74
2023/01/04 00:36:52;;;;;;;36.97;24.67;;;3.00;99.90;;;2.54;94.50;99160.41;5075454;28;20451;-74
2023/01/04 00:39:20;;;;;;;34.40;23.97;;;3.00;99.90;;;2.45;94.16;99145.22;5075568;28;20501;-76
2023/01/04 00:41:49;;;;;;;31.07;21.50;;;3.10;99.90;;;2.63;94.75;99172.94;5093172;28;20459;-76
2023/01/04 00:44:17;;;;;;;35.93;22.80;;;3.10;99.90;;;2.62;94.75;99167.72;5091588;28;20501;-75
2023/01/04 00:46:44;;;;;;;35.60;24.20;;;3.10;99.90;;;2.51;95.35;99166.00;5070772;28;20448;-73
2023/01/04 00:49:12;;;;;;;33.93;23.27;;;3.10;99.90;;;2.50;95.48;99156.31;5091171;28;21080;-76
2023/01/04 00:51:42;;;;;;;31.83;22.63;;;3.00;99.90;;;2.59;94.43;99162.66;5094131;28;20482;-74
2023/01/04 00:54:14;;;;;;;32.67;23.00;;;3.00;99.90;;;2.57;94.40;99159.28;5074140;28;20464;-74
2023/01/04 00:56:41;;;;;;;31.03;22.07;;;3.00;99.90;;;2.47;94.72;99135.25;5094172;28;20450;-73
2023/01/04 00:59:10;;;;;;;36.33;25.13;;;3.00;99.90;;;2.30;95.41;99126.06;5067927;28;20880;-73
2023/01/04 01:01:37;;;;;;;34.77;22.60;;;2.90;99.90;;;2.31;95.66;99122.41;5075366;28;20478;-74
2023/01/04 01:04:05;;;;;;;38.70;23.47;;;2.90;99.90;;;2.22;95.86;99119.59;5080705;28;20502;-74
2023/01/04 01:06:33;;;;;;;32.07;24.07;;;2.90;99.90;;;2.38;95.23;99147.59;5080170;28;20455;-75
2023/01/04 01:09:01;;;;;;;34.93;23.87;;;2.90;99.90;;;2.38;95.50;99150.25;5082515;28;20458;-75
2023/01/04 01:11:30;;;;;;;35.90;24.50;;;2.90;99.90;;;2.35;94.89;99134.50;5077387;28;20492;-74
2023/01/04 01:13:59;;;;;;;39.40;25.00;;;2.80;99.90;;;2.15;95.32;99123.75;5079456;28;20542;-75
2023/01/04 01:16:27;;;;;;;33.83;22.70;;;2.80;99.90;;;2.15;95.65;99129.09;5079930;28;20459;-73
2023/01/04 01:18:54;;;;;;;35.20;23.90;;;2.70;99.90;;;2.21;95.46;99138.38;5076282;28;21361;-74
2023/01/04 01:21:25;;;;;;;36.73;24.10;;;2.70;99.90;;;2.12;95.98;99134.72;5070932;28;20961;-75
2023/01/04 01:23:55;;;;;;;34.93;23.33;;;2.70;99.90;;;2.16;96.04;99141.44;5065251;28;20467;-75
2023/01/04 01:26:24;;;;;;;36.27;24.40;;;2.70;99.90;;;1.97;96.81;99137.72;5079273;28;20551;-75
2023/01/04 01:28:53;;;;;;;42.60;25.50;;;2.70;99.90;;;2.08;97.11;99149.28;5077833;28;20546;-75
2023/01/04 01:31:22;;;;;;;40.03;26.00;;;2.60;99.90;;;2.00;97.72;99141.97;5080974;28;20483;-73
2023/01/04 01:33:52;;;;;;;45.07;27.47;;;2.60;99.90;;;2.04;98.13;99153.19;5076929;28;20448;-72
2023/01/04 01:36:21;;;;;;;43.17;27.37;;;2.70;99.90;;;2.12;97.95;99156.03;5076503;28;20455;-75
2023/01/04 01:38:49;;;;;;;47.30;27.33;;;2.60;99.90;;;2.19;97.60;99149.19;5076099;28;20465;-76
2023/01/04 01:41:20;;;;;;;47.40;27.30;;;2.70;99.90;;;1.94;97.57;99127.34;5081381;28;20538;-73
2023/01/04 01:43:56;;;;;;;44.23;26.83;;;2.70;99.90;;;1.75;97.48;99085.44;5081943;28;21197;-75
2023/01/04 01:46:27;;;;;;;42.10;26.00;;;2.70;99.90;;;2.08;97.67;99117.28;5083448;28;20451;-73
2023/01/04 01:49:02;;;;;;;47.93;26.03;;;2.70;99.90;;;2.13;97.63;99141.72;5085790;28;20496;-73
2023/01/04 01:51:31;;;;;;;46.77;27.57;;;2.70;99.90;;;1.96;98.07;99122.72;5087934;28;20436;-73
2023/01/04 01:54:05;;;;;;;45.77;25.53;;;2.60;99.90;;;2.04;98.65;99143.38;5090752;28;20548;-72
2023/01/04 01:56:35;;;;;;;47.03;26.00;;;2.60;99.90;;;2.11;98.56;99138.34;5089831;28;20450;-73
2023/01/04 01:59:04;;;;;;;54.13;25.80;;;2.60;99.90;;;1.82;98.84;99102.59;5066740;28;20512;-72
2023/01/04 02:01:33;;;;;;;58.20;27.17;;;2.60;99.90;;;2.04;98.14;99155.84;5087643;28;20469;-72
2023/01/04 02:04:01;;;;;;;49.37;26.90;;;2.60;99.90;;;2.02;98.57;99139.13;5096144;28;20451;-73
2023/01/04 02:06:33;;;;;;;42.00;24.30;;;2.60;99.90;;;1.59;98.73;99093.88;5096231;28;20450;-74
2023/01/04 02:09:02;;;;;;;44.77;23.80;;;2.50;99.90;;;1.85;98.99;99138.78;5099244;28;20451;-74
2023/01/04 02:11:29;;;;;;;51.40;23.87;;;2.40;99.90;;;1.87;99.00;99138.66;5074562;28;20452;-72
2023/01/04 02:16:59;;;;;;;51.70;23.00;;;2.40;99.90;;;1.73;99.74;99139.81;5103339;28;20467;-74
2023/01/04 02:20:11;;;;;;;46.07;24.23;;;2.40;99.90;;;1.78;100.00;99133.13;5094527;28;20458;-75
2023/01/04 02:23:28;;;;;;;44.10;24.37;;;2.40;99.90;;;1.86;100.00;99129.81;5090885;28;20492;-76
2023/01/04 02:26:46;;;;;;;48.87;22.60;;;2.50;99.90;;;1.73;100.00;99124.69;5004692;28;20470;-75
2023/01/04 02:29:51;;;;;;;59.20;24.37;;;2.40;99.90;;;1.71;100.00;99116.00;5084424;28;20443;-75
2023/01/04 02:32:33;;;;;;;57.20;23.87;;;2.40;99.90;;;1.25;100.00;99031.03;5060935;28;20455;-75
2023/01/04 02:35:10;;;;;;;67.87;25.87;;;2.40;99.90;;;1.59;100.00;99093.88;5086905;28;20462;-73
2023/01/04 02:37:47;;;;;;;60.67;24.80;;;2.40;99.90;;;1.78;100.00;99100.31;5063636;28;20446;-72
2023/01/04 02:40:23;;;;;;;82.43;26.47;;;2.40;99.90;;;1.75;100.00;99101.41;5074106;28;20452;-72
2023/01/04 02:45:54;;;;;;;115.97;29.70;;;2.50;99.90;;;1.88;100.00;99100.38;5086820;28;20471;-73
2023/01/04 02:51:28;;;;;;;72.33;30.93;;;2.50;99.90;;;2.10;100.00;99113.50;5072137;28;20447;-72
2023/01/04 02:53:58;;;;;;;100.07;31.10;;;2.70;99.90;;;2.20;100.00;99126.91;5089583;28;20459;-72
2023/01/04 02:56:37;;;;;;;64.60;27.13;;;2.80;99.90;;;2.28;100.00;99112.03;5089809;28;20545;-72
2023/01/04 02:59:19;;;;;;;67.37;28.70;;;2.80;99.90;;;2.17;100.00;99094.31;5080791;28;20528;-73
2023/01/04 03:07:53;;;;;;;87.70;31.47;;;2.90;99.90;;;2.28;100.00;99101.34;5071014;28;20457;-72
2023/01/04 03:10:31;;;;;;;103.23;33.00;;;2.90;99.90;;;2.28;100.00;99102.22;5072327;28;20436;-72
2023/01/04 03:13:05;;;;;;;96.43;32.43;;;2.90;99.90;;;2.44;100.00;99095.53;5087925;28;20455;-74
2023/01/04 03:15:37;;;;;;;77.47;28.93;;;3.00;99.90;;;2.43;100.00;99100.00;5085574;28;20481;-72
2023/01/04 03:18:13;;;;;;;71.33;30.77;;;3.00;99.90;;;2.52;100.00;99087.66;5086098;28;20537;-73
2023/01/04 03:20:43;;;;;;;74.23;30.23;;;3.00;99.90;;;2.44;100.00;99091.00;5096653;28;20499;-75
2023/01/04 03:37:20;;;;;;;65.47;30.67;;;3.10;99.90;;;2.65;100.00;99082.06;5084309;28;20451;-72
2023/01/04 03:48:49;;;;;;;57.63;29.70;;;3.40;99.90;;;2.83;98.95;99076.88;5089451;28;20459;-73
2023/01/04 03:51:22;;;;;;;52.40;29.70;;;3.30;99.90;;;2.67;99.42;99064.09;5075366;28;20505;-76
2023/01/04 03:53:58;;;;;;;50.23;27.87;;;3.30;99.90;;;2.70;99.74;99063.81;5066917;28;20978;-73
2023/01/04 03:56:28;;;;;;;46.30;27.13;;;3.30;99.90;;;2.59;99.03;99054.13;5083041;28;20525;-73
2023/01/04 03:58:55;;;;;;;51.87;29.03;;;3.30;99.90;;;2.71;98.67;99053.97;5089523;28;20509;-74
2023/01/04 04:01:25;;;;;;;47.77;27.77;;;3.30;99.90;;;2.81;98.25;99049.50;5070031;28;20440;-75
2023/01/04 04:09:24;;;;;;;41.93;25.60;;;3.40;99.90;;;2.83;97.70;99042.19;5078433;28;20460;-76
2023/01/04 04:11:51;;;;;;;35.67;22.47;;;3.40;99.90;;;2.83;96.94;99037.69;5070771;28;20456;-75
2023/01/04 04:14:18;;;;;;;35.13;22.53;;;3.40;99.90;;;2.92;96.70;99040.50;5098972;28;20544;-73
2023/01/04 04:16:45;;;;;;;36.03;23.53;;;3.50;99.90;;;2.81;96.98;99022.81;5072799;28;20972;-73
2023/01/04 04:19:13;;;;;;;39.17;24.27;;;3.40;99.90;;;2.76;97.11;99009.88;5085985;28;20932;-73
2023/01/04 04:21:40;;;;;;;38.73;24.80;;;3.40;99.90;;;2.43;96.90;98934.59;5089526;28;20480;-74
2023/01/04 04:24:08;;;;;;;37.63;24.50;;;3.50;99.90;;;3.05;96.24;99035.72;5089910;28;20475;-74
2023/01/04 04:26:37;;;;;;;37.93;24.00;;;3.60;99.90;;;2.62;95.50;98965.78;5096457;28;20561;-74
2023/01/04 04:29:04;;;;;;;37.27;23.63;;;3.60;99.90;;;2.94;96.28;99022.50;5071189;28;20447;-75
2023/01/04 04:31:31;;;;;;;33.37;22.47;;;3.50;99.90;;;3.01;96.48;99018.28;5085590;28;20487;-75
2023/01/04 04:33:58;;;;;;;32.67;22.57;;;3.50;99.90;;;2.93;95.97;99021.69;5088344;28;20945;-75
2023/01/04 04:36:25;;;;;;;34.37;24.43;;;3.50;99.90;;;2.88;96.19;99025.75;5088111;28;20443;-74
2023/01/04 04:38:53;;;;;;;36.00;24.40;;;3.50;99.90;;;3.09;96.01;99021.09;5084881;28;20493;-75
2023/01/04 04:41:37;;;;;;;36.90;23.60;;;3.60;99.90;;;3.18;95.18;99024.72;5073808;28;20451;-74
2023/01/04 04:44:08;;;;;;;37.10;21.87;;;3.60;99.90;;;2.93;95.67;98994.97;5091832;28;20459;-74
2023/01/04 04:46:35;;;;;;;35.70;23.10;;;3.60;99.90;;;2.92;94.94;99016.47;5069388;28;22186;-75
2023/01/04 04:49:02;;;;;;;35.67;21.87;;;3.50;99.90;;;2.83;94.91;99016.34;5083906;28;20516;-77
2023/01/04 04:51:29;;;;;;;34.83;22.37;;;3.50;99.90;;;2.93;95.14;99020.81;5076489;28;20485;-73
2023/01/04 04:53:56;;;;;;;36.40;24.17;;;3.40;99.90;;;2.93;95.01;99020.81;5086982;28;20459;-75
2023/01/04 04:56:23;;;;;;;35.93;21.17;;;3.50;99.90;;;2.89;95.75;99014.94;5094402;28;20787;-74
2023/01/04 04:58:51;;;;;;;34.67;21.17;;;3.40;99.90;;;2.96;94.83;99004.53;5099998;28;20462;-75
2023/01/04 05:01:20;;;;;;;32.33;20.97;;;3.40;99.90;;;3.01;94.30;98996.06;5086885;28;20527;-73
2023/01/04 05:03:47;;;;;;;32.67;21.77;;;3.50;99.90;;;2.99;94.69;98993.56;5091818;28;20521;-74
2023/01/04 05:06:15;;;;;;;34.07;22.13;;;3.40;99.90;;;2.35;94.77;98907.78;5086136;28;21292;-74
2023/01/04 05:08:42;;;;;;;32.67;21.93;;;3.40;99.90;;;2.91;95.77;98996.09;5089876;28;20482;-75
2023/01/04 05:11:12;;;;;;;34.97;21.30;;;3.40;99.90;;;2.93;95.70;98983.44;5096022;28;20508;-74
2023/01/04 05:13:38;;;;;;;30.47;20.97;;;3.40;99.90;;;3.00;95.91;98983.72;5096567;28;20508;-75
2023/01/04 05:16:09;;;;;;;35.07;21.83;;;3.50;99.90;;;3.13;95.12;98986.94;5084549;28;20452;-73
2023/01/04 05:18:37;;;;;;;33.97;19.80;;;3.50;99.90;;;2.94;95.03;98979.78;5059280;28;20450;-75
2023/01/04 05:21:04;;;;;;;34.00;21.40;;;3.60;99.90;;;2.64;95.70;98909.59;5077096;28;20505;-76
2023/01/04 05:23:32;;;;;;;35.50;20.50;;;3.50;99.90;;;3.07;94.67;98977.66;5090191;28;20461;-76
2023/01/04 05:26:02;;;;;;;32.90;21.70;;;3.60;99.90;;;3.07;94.11;98961.63;5072681;28;20511;-73
2023/01/04 05:28:29;;;;;;;33.50;20.50;;;3.70;99.90;;;3.22;94.54;98983.41;5089502;28;20535;-72
2023/01/04 05:30:56;;;;;;;34.53;20.80;;;3.70;99.90;;;3.20;94.44;98992.53;5079285;28;20450;-75
2023/01/04 05:33:25;;;;;;;34.43;21.10;;;3.70;99.90;;;3.34;94.28;98989.41;5077036;28;23234;-73
2023/01/04 05:35:55;;;;;;;28.17;19.63;;;3.70;99.90;;;3.08;93.59;98928.59;5086147;28;20480;-74
2023/01/04 05:38:22;;;;;;;29.87;18.70;;;3.80;99.90;;;3.38;93.64;98993.47;5092380;28;21014;-73
2023/01/04 05:40:51;;;;;;;27.30;19.73;;;3.90;99.90;;;3.39;94.35;98984.47;5080379;28;20523;-75
2023/01/04 05:43:20;;;;;;;29.10;18.97;;;3.90;99.90;;;3.00;93.36;98917.81;5086092;28;20482;-76
2023/01/04 05:45:49;;;;;;;28.37;19.03;;;3.90;99.90;;;3.11;93.05;98917.66;5085321;28;20499;-76
2023/01/04 05:48:16;;;;;;;27.07;18.43;;;3.90;99.90;;;3.46;93.04;98959.84;5087247;28;21189;-73
2023/01/04 05:50:44;;;;;;;25.20;17.60;;;4.00;99.90;;;3.53;93.39;98969.81;5081738;28;20823;-73
2023/01/04 05:53:16;;;;;;;23.10;16.20;;;4.00;99.90;;;3.50;92.74;98982.59;5086113;28;20454;-75
2023/01/04 05:55:44;;;;;;;26.00;16.10;;;3.90;99.90;;;3.32;93.40;98972.69;5087526;28;20459;-72
2023/01/04 05:58:11;;;;;;;24.60;16.43;;;3.90;99.90;;;3.47;93.16;98978.38;5073536;28;21049;-73
2023/01/04 06:00:38;;;;;;;27.40;17.80;;;3.90;99.90;;;3.64;92.73;98984.81;5056763;28;20963;-77
2023/01/04 06:03:05;;;;;;;22.37;15.90;;;3.90;99.90;;;3.56;92.47;98979.34;5084920;28;20456;-72
2023/01/04 06:05:32;;;;;;;24.20;16.20;;;3.90;99.90;;;3.49;92.58;98970.25;5080500;28;20525;-75
2023/01/04 06:08:01;;;;;;;22.37;14.43;;;3.90;99.90;;;3.64;92.45;98981.28;5080540;28;20462;-73
2023/01/04 06:10:29;;;;;;;22.57;15.20;;;4.00;99.90;;;3.54;92.13;98965.28;5069186;28;20464;-70
2023/01/04 06:12:56;;;;;;;22.77;14.03;;;4.00;99.90;;;3.24;92.64;98919.13;5088221;28;20517;-70
2023/01/04 06:15:23;;;;;;;24.97;15.73;;;4.00;99.90;;;3.56;93.28;98957.97;5083772;28;21186;-70
2023/01/04 06:17:50;;;;;;;24.27;16.17;;;4.00;99.90;;;3.59;92.68;98952.34;5090680;28;20656;-70
2023/01/04 06:20:18;;;;;;;21.53;14.40;;;4.10;99.90;;;3.66;92.39;98944.56;5077798;28;20448;-71
2023/01/04 06:22:46;;;;;;;23.30;14.50;;;4.10;99.90;;;3.74;92.42;98949.19;5072219;28;21057;-73
2023/01/04 06:25:13;;;;;;;21.03;13.13;;;4.10;99.90;;;3.88;92.09;98945.16;5076956;28;20466;-72
2023/01/04 06:27:41;;;;;;;21.03;14.17;;;4.20;99.90;;;3.91;92.06;98940.34;5092200;28;20451;-71
2023/01/04 06:30:10;;;;;;;24.50;15.67;;;4.30;99.90;;;3.86;91.87;98931.91;5089296;28;20475;-70
2023/01/04 06:32:37;;;;;;;23.20;14.80;;;4.30;99.90;;;3.72;92.53;98929.78;5106702;28;20815;-71
2023/01/04 06:35:05;;;;;;;20.13;12.97;;;4.30;99.90;;;3.77;91.85;98925.66;5102162;28;20472;-71
2023/01/04 06:37:32;;;;;;;21.73;14.67;;;4.30;99.90;;;3.58;92.27;98912.41;5087268;28;20475;-70
2023/01/04 06:39:59;;;;;;;19.50;13.50;;;4.20;99.90;;;4.01;91.13;98913.56;5090079;28;21096;-71
2023/01/04 06:42:45;;;;;;;18.93;13.27;;;4.40;99.90;;;3.92;90.56;98912.63;5090691;28;20513;-71
2023/01/04 06:45:15;;;;;;;22.20;14.57;;;4.40;99.90;;;4.05;91.55;98914.09;5089995;28;20493;-71
2023/01/04 06:47:42;;;;;;;20.80;12.93;;;4.50;99.90;;;4.19;90.94;98915.41;5082442;28;20480;-71
2023/01/04 06:50:11;;;;;;;20.53;13.27;;;4.60;99.90;;;4.02;90.42;98903.69;5091687;28;20538;-72
2023/01/04 06:52:38;;;;;;;22.00;14.10;;;4.60;99.90;;;4.09;89.58;98907.44;5069825;28;21085;-76
2023/01/04 06:55:08;;;;;;;25.80;14.03;;;4.60;99.90;;;3.88;90.16;98873.81;5068512;28;20459;-77
2023/01/04 06:57:36;;;;;;;19.97;13.83;;;4.60;99.90;;;4.20;90.35;98903.69;5085953;28;20448;-74
2023/01/04 07:00:05;;;;;;;19.23;13.20;;;4.50;99.90;;;4.14;89.63;98909.66;5068116;28;20456;-73
2023/01/04 07:02:33;;;;;;;23.33;14.13;;;4.60;99.90;;;3.95;90.13;98896.28;5077723;28;20477;-72
2023/01/04 07:05:00;;;;;;;21.10;13.50;;;4.60;99.90;;;4.22;90.15;98909.72;5059620;28;21208;-72
2023/01/04 07:07:28;;;;;;;21.10;14.17;;;4.60;99.90;;;3.88;89.61;98865.81;5087711;28;20968;-72
2023/01/04 07:09:55;;;;;;;22.03;14.33;;;4.60;99.90;;;4.18;89.49;98897.66;5083931;28;20451;-73
2023/01/04 07:12:22;;;;;;;21.13;14.10;;;4.60;99.90;;;4.20;89.52;98896.53;5078766;28;20995;-73
2023/01/04 07:14:50;;;;;;;21.10;13.37;;;4.70;99.90;;;4.28;89.09;98886.88;5057351;28;20547;-73
2023/01/04 07:17:17;;;;;;;21.33;13.10;;;4.60;99.90;;;4.39;88.47;98897.34;5085837;28;20451;-74
2023/01/04 07:19:45;;;;;;;23.00;14.97;;;4.70;99.30;;;4.23;88.31;98890.88;5058281;28;21052;-73
2023/01/04 07:22:12;;;;;;;20.60;12.90;;;4.70;97.80;;;4.36;88.84;98892.31;5080129;28;23240;-73
2023/01/04 07:24:40;;;;;;;20.03;13.50;;;4.70;99.50;;;4.20;88.93;98888.50;5082998;28;20458;-73
2023/01/04 07:27:07;;;;;;;20.13;12.83;;;4.70;98.00;;;4.35;88.27;98885.28;5066054;28;20819;-73
2023/01/04 07:29:34;;;;;;;20.47;12.73;;;4.80;98.60;;;4.31;87.94;98875.88;5076494;28;20480;-73
2023/01/04 07:32:02;;;;;;;21.97;14.53;;;4.80;97.10;;;4.13;88.02;98825.06;5068487;28;20446;-74
2023/01/04 07:34:30;;;;;;;23.03;14.50;;;4.90;97.30;;;4.41;87.54;98879.31;5085602;28;20514;-74
2023/01/04 07:36:59;;;;;;;19.70;14.03;;;4.90;96.90;;;4.45;88.30;98878.00;5081006;28;20451;-72
2023/01/04 07:39:26;;;;;;;21.23;13.60;;;4.90;96.70;;;4.32;87.77;98870.38;5058165;28;20441;-72
2023/01/04 07:41:53;;;;;;;19.83;12.40;;;4.90;96.60;;;4.51;87.18;98866.69;5078522;28;20562;-73
2023/01/04 07:44:21;;;;;;;21.87;13.17;;;5.00;96.20;;;4.53;87.17;98870.03;5080246;28;20548;-73
2023/01/04 07:46:48;;;;;;;19.83;12.20;;;5.00;96.00;;;4.50;87.13;98869.50;5077953;28;20505;-73
2023/01/04 07:49:18;;;;;;;21.03;13.03;;;4.90;96.20;;;4.42;86.04;98798.03;5083367;28;20436;-76
2023/01/04 07:51:45;;;;;;;19.87;12.70;;;5.10;96.00;;;4.65;86.54;98857.25;5077764;28;20472;-82
2023/01/04 07:54:15;;;;;;;17.33;13.17;;;5.10;94.90;;;4.77;86.29;98870.38;5048699;28;20484;-75
2023/01/04 07:56:42;;;;;;;20.03;12.60;;;5.20;94.50;;;4.96;85.91;98870.16;5073769;28;20940;-73
2023/01/04 07:59:11;;;;;;;16.33;11.77;;;5.30;95.00;;;4.82;86.06;98858.19;5080647;28;20495;-72
2023/01/04 08:01:40;;;;;;;20.27;12.50;;;5.30;94.80;;;4.71;86.98;98861.13;5083126;28;20483;-72
2023/01/04 08:04:08;;;;;;;20.17;13.43;;;5.20;95.30;;;5.04;85.67;98863.19;5059608;28;20537;-74
2023/01/04 08:06:36;;;;;;;17.53;12.10;;;5.30;95.60;;;4.96;86.70;98863.97;5058388;28;20499;-74
2023/01/04 08:09:06;;;;;;;20.33;13.23;;;5.40;95.50;;;4.81;86.47;98845.81;5088824;28;20544;-72
2023/01/04 08:11:34;;;;;;;18.47;12.73;;;5.30;95.40;;;4.97;86.45;98858.44;5079525;28;20537;-73
2023/01/04 08:14:03;;;;;;;20.57;13.60;;;5.40;95.60;;;5.09;86.34;98863.53;5082143;28;20443;-73
2023/01/04 08:16:32;;;;;;;17.53;12.73;;;5.40;95.60;;;4.97;86.42;98854.94;5063755;28;20860;-73
2023/01/04 08:19:01;;;;;;;18.90;14.13;;;5.40;95.10;;;4.88;86.92;98855.88;5084073;28;21239;-71
2023/01/04 08:21:31;;;;;;;18.80;13.10;;;5.40;95.70;;;5.12;86.52;98851.66;5064067;28;20452;-71
2023/01/04 08:23:58;;;;;;;19.07;13.23;;;5.50;95.60;;;5.18;86.99;98851.88;5084555;28;20463;-71
2023/01/04 08:26:26;;;;;;;17.63;12.80;;;5.50;96.10;;;5.10;87.35;98849.13;5082454;28;20482;-72
2023/01/04 08:28:55;;;;;;;19.80;12.20;;;5.50;95.50;;;5.15;86.22;98828.06;5088882;28;21780;-73
2023/01/04 08:31:24;;;;;;;19.07;11.20;;;5.60;95.80;;;5.27;86.69;98844.72;5064867;28;20456;-72
2023/01/04 08:33:53;;;;;;;17.93;11.53;;;5.60;95.80;;;5.42;86.07;98831.50;5077237;28;20455;-75
2023/01/04 08:36:22;;;;;;;17.47;12.33;;;5.70;95.60;;;5.43;85.81;98832.38;5084943;28;20451;-71
2023/01/04 08:38:52;;;;;;;17.27;11.40;;;5.80;95.10;;;5.32;86.35;98818.25;5084986;28;20454;-73
2023/01/04 08:41:20;;;;;;;19.10;12.40;;;5.70;95.30;;;5.33;86.31;98827.16;5069764;28;20477;-74
2023/01/04 08:43:47;;;;;;;16.00;11.93;;;5.70;95.30;;;5.28;86.13;98805.34;5087225;28;20628;-76
2023/01/04 08:46:16;;;;;;;16.83;10.80;;;5.70;95.20;;;5.53;85.54;98816.97;5086438;28;20463;-71
2023/01/04 08:48:43;;;;;;;16.50;11.37;;;5.80;95.00;;;5.59;85.13;98810.97;5085205;28;20467;-72
2023/01/04 08:51:14;;;;;;;16.80;10.27;;;5.80;94.70;;;5.49;85.03;98783.47;5054230;28;20464;-72
2023/01/04 08:53:42;;;;;;;16.30;11.33;;;5.90;94.20;;;5.38;85.65;98777.44;5078224;28;20521;-74
2023/01/04 08:56:10;;;;;;;15.30;10.70;;;5.90;94.40;;;5.67;84.86;98772.63;5060522;28;20475;-71
2023/01/04 08:58:39;;;;;;;16.57;11.40;;;6.00;94.10;;;5.86;84.60;98771.47;5085188;28;20468;-71
2023/01/04 09:01:09;;;;;;;17.17;11.50;;;6.10;93.80;;;5.89;84.54;98767.59;5081069;28;21007;-72
2023/01/04 09:03:38;;;;;;;14.07;10.93;;;6.20;93.50;;;5.84;83.91;98769.94;5087435;28;20471;-71
2023/01/04 09:06:08;;;;;;;15.13;10.70;;;6.20;92.80;;;5.91;83.67;98771.78;5079328;28;20456;-70
2023/01/04 09:08:37;;;;;;;15.93;10.20;;;6.30;92.70;;;6.15;82.86;98758.59;5065660;28;21044;-71
2023/01/04 09:11:05;;;;;;;14.70;10.00;;;6.40;92.50;;;6.17;82.70;98762.78;5077941;28;20547;-71
2023/01/04 09:13:33;;;;;;;12.73;9.07;;;6.50;92.20;;;6.09;82.68;98763.63;5080531;28;20713;-70
2023/01/04 09:16:01;;;;;;;12.73;9.57;;;6.50;91.90;;;6.30;82.13;98758.75;5075652;28;20444;-71
2023/01/04 09:18:30;;;;;;;14.03;9.47;;;6.60;91.90;;;6.38;81.80;98772.16;5071750;28;20462;-71
2023/01/04 09:21:00;;;;;;;12.80;8.60;;;6.70;91.30;;;6.18;82.37;98767.13;5081250;28;20467;-70
2023/01/04 09:23:29;;;;;;;12.17;9.07;;;6.50;91.30;;;6.33;81.43;98769.16;5084023;28;20463;-70
2023/01/04 09:25:56;;;;;;;12.23;9.10;;;6.60;91.20;;;6.33;81.58;98763.78;5084819;28;20455;-71
2023/01/04 09:28:23;;;;;;;12.83;9.67;;;6.70;91.00;;;6.47;81.34;98763.09;5083476;28;21022;-71
2023/01/04 09:30:50;;;;;;;10.10;8.20;;;6.80;90.90;;;6.68;80.82;98766.22;5083158;28;20485;-71
2023/01/04 09:33:18;;;;;;;13.73;10.07;;;6.80;91.00;;;6.69;79.89;98757.97;5083271;28;21292;-72
2023/01/04 09:35:45;;;;;;;11.53;8.20;;;6.90;90.30;;;6.65;80.29;98752.13;5084758;28;20448;-71
2023/01/04 09:38:13;;;;;;;11.97;8.27;;;6.90;90.40;;;6.85;79.03;98758.94;5068026;28;20550;-71
2023/01/04 09:40:54;;;;;;;8.80;7.33;;;7.10;88.80;;;7.00;78.57;98754.53;5082293;28;20449;-71
2023/01/04 09:43:24;;;;;;;9.90;7.40;;;7.20;88.70;;;7.09;77.62;98753.47;5079072;28;20555;-71
2023/01/04 09:46:01;;;;;;;9.20;7.67;;;7.30;87.40;;;7.09;76.52;98748.13;5063671;28;20452;-71
2023/01/04 09:48:31;;;;;;;10.20;6.30;;;7.30;85.90;;;7.14;75.45;98746.75;5086281;28;20957;-71
2023/01/04 09:51:02;;;;;;;7.43;5.87;;;7.40;84.70;;;7.18;75.34;98756.97;5083086;28;21167;-71
2023/01/04 09:53:38;;;;;;;8.10;5.70;;;7.40;84.60;;;7.43;74.38;98758.69;5086410;28;20509;-71
2023/01/04 09:56:16;;;;;;;9.57;5.60;;;7.60;84.30;;;7.35;72.98;98746.97;5076929;28;20541;-72
2023/01/04 09:58:44;;;;;;;4.17;3.73;;;7.70;82.80;;;7.52;71.60;98757.63;5064381;28;20802;-73
2023/01/04 10:01:17;;;;;;;6.10;3.90;;;7.80;81.50;;;7.47;72.09;98765.38;5083271;28;20871;-73
2023/01/04 10:03:55;;;;;;;5.10;3.83;;;7.80;81.70;;;7.62;70.54;98752.84;5079630;28;20486;-71
2023/01/04 10:06:22;;;;;;;4.30;2.70;;;7.90;81.10;;;7.48;71.39;98734.78;5059124;28;20453;-72
2023/01/04 10:08:51;;;;;;;4.40;3.03;;;7.80;80.60;;;7.74;69.36;98739.00;5063851;28;21254;-72
2023/01/04 10:11:33;;;;;;;3.40;2.80;;;8.00;79.50;;;7.58;69.85;98732.72;5077418;28;20529;-72
2023/01/04 10:14:32;;;;;;;5.43;2.60;;;8.00;79.30;;;7.96;67.99;98731.06;5076563;28;20477;-73
2023/01/04 10:17:22;;;;;;;4.00;2.00;;;8.20;78.80;;;7.86;68.29;98728.63;5078729;28;20450;-72
2023/01/04 10:20:39;;;;;;;5.53;3.10;;;8.30;78.60;;;7.94;67.48;98726.72;5055410;28;20457;-72
2023/01/04 10:23:14;;;;;;;2.50;2.30;;;8.30;77.60;;;7.90;68.75;98722.72;5074803;28;20461;-72
2023/01/04 10:25:50;;;;;;;3.37;2.40;;;8.30;78.20;;;7.90;67.64;98716.50;5080909;28;20470;-72
2023/01/04 10:28:31;;;;;;;1.87;1.77;;;8.30;77.90;;;7.73;68.29;98715.78;5066984;28;20523;-79
2023/01/04 10:31:05;;;;;;;2.67;2.23;;;8.20;77.80;;;7.71;67.96;98713.28;5085194;28;20454;-70
2023/01/04 10:33:43;;;;;;;2.03;1.60;;;8.10;77.90;;;7.71;68.59;98702.50;5068684;28;20456;-72
2023/01/04 10:36:19;;;;;;;2.50;2.07;;;8.10;78.30;;;7.64;69.06;98701.56;5077663;28;20453;-73
2023/01/04 10:38:53;;;;;;;2.40;1.70;;;8.00;78.40;;;7.89;69.09;98699.53;5081008;28;20832;-71
2023/01/04 10:41:25;;;;;;;2.50;2.17;;;8.10;78.90;;;8.08;67.94;98690.09;5078558;28;20943;-73
2023/01/04 10:44:06;;;;;;;1.33;1.23;;;8.20;78.70;;;7.84;68.91;98687.63;5082790;28;20903;-72
2023/01/04 10:46:42;;;;;;;1.67;1.33;;;8.20;78.60;;;7.71;68.74;98682.88;5085521;28;20503;-71
2023/01/04 10:49:16;;;;;;;2.00;1.50;;;8.10;78.40;;;8.00;68.51;98681.28;5083481;28;20463;-72
2023/01/04 10:51:48;;;;;;;2.17;1.73;;;8.20;78.40;;;8.02;67.29;98671.97;5074009;28;20455;-71
2023/01/04 10:54:27;;;;;;;1.83;1.40;;;8.30;77.70;;;8.04;67.23;98663.72;5079047;28;20459;-71
2023/01/04 10:57:01;;;;;;;1.77;1.30;;;8.40;77.50;;;8.17;66.29;98660.41;5079012;28;20454;-71
2023/01/04 10:59:38;;;;;;;2.00;1.80;;;8.40;77.40;;;8.20;67.40;98644.72;5072222;28;20872;-71
2023/01/04 11:02:17;;;;;;;2.00;1.67;;;8.50;77.70;;;8.11;66.20;98664.66;5077154;28;20816;-73
2023/01/04 11:04:52;;;;;;;5.13;1.40;;;8.50;77.10;;;8.05;67.22;98668.09;5078364;28;21473;-73
2023/01/04 11:07:25;;;;;;;2.43;1.67;;;8.40;77.20;;;8.38;65.60;98654.28;5074476;28;20484;-72
2023/01/04 11:09:57;;;;;;;2.10;1.77;;;8.50;77.00;;;8.45;65.19;98638.22;5078075;28;20470;-72
2023/01/04 11:12:26;;;;;;;2.10;1.33;;;8.60;76.60;;;8.41;64.80;98637.75;5079225;28;20461;-72
2023/01/04 11:14:53;;;;;;;2.50;1.30;;;8.70;76.00;;;8.29;65.48;98641.97;5082610;28;20511;-73
2023/01/04 11:17:23;;;;;;;1.60;1.23;;;8.70;76.20;;;8.52;64.80;98649.13;5077487;28;20638;-72
2023/01/04 11:19:51;;;;;;;1.73;1.30;;;8.70;76.10;;;8.60;65.09;98646.34;5064208;28;20498;-72